createdAt,value
2018-10-19T00:00:51.165Z,100.00
2018-10-19T00:03:19.606Z,100.00
2018-10-19T00:05:47.945Z,100.00
2018-10-19T00:08:16.569Z,100.00
2018-10-19T00:10:44.882Z,100.00
2018-10-19T00:13:13.185Z,100.00
2018-10-19T00:15:41.490Z,100.00
2018-10-19T00:18:09.859Z,100.00
2018-10-19T00:20:38.204Z,100.00
2018-10-19T00:23:06.682Z,100.00
2018-10-19T00:25:34.936Z,100.00
2018-10-19T00:28:03.303Z,100.00
2018-10-19T00:30:32.086Z,100.00
2018-10-19T00:33:00.453Z,100.00
2018-10-19T00:35:28.783Z,100.00
2018-10-19T00:37:57.192Z,100.00
2018-10-19T00:40:25.506Z,100.00
2018-10-19T00:42:53.813Z,100.00
2018-10-19T00:45:52.810Z,100.00
2018-10-19T00:48:21.348Z,100.00
2018-10-19T00:50:49.643Z,100.00
2018-10-19T00:53:21.416Z,100.00
2018-10-19T00:55:49.718Z,100.00
2018-10-19T00:58:18.016Z,100.00
2018-10-19T01:00:46.405Z,100.00
2018-10-19T01:03:14.788Z,100.00
2018-10-19T01:05:43.056Z,100.00
2018-10-19T01:08:11.640Z,100.00
2018-10-19T01:10:40.017Z,100.00
2018-10-19T01:13:08.402Z,100.00
2018-10-19T01:15:36.708Z,100.00
2018-10-19T01:18:05.232Z,100.00
2018-10-19T01:20:33.544Z,100.00
2018-10-19T01:23:01.900Z,100.00
2018-10-19T01:25:30.206Z,100.00
2018-10-19T01:27:58.593Z,100.00
2018-10-19T01:30:26.900Z,100.00
2018-10-19T01:32:55.203Z,100.00
2018-10-19T01:35:23.661Z,100.00
2018-10-19T01:37:51.998Z,100.00
2018-10-19T01:40:20.299Z,100.00
2018-10-19T01:42:48.655Z,100.00
2018-10-19T01:45:16.955Z,100.00
2018-10-19T01:47:45.281Z,100.00
2018-10-19T01:50:13.565Z,100.00
2018-10-19T01:52:42.022Z,100.00
2018-10-19T01:55:10.321Z,100.00
2018-10-19T01:57:38.650Z,100.00
2018-10-19T02:00:07.518Z,100.00
2018-10-19T02:02:35.902Z,100.00
2018-10-19T02:05:04.407Z,100.00
2018-10-19T02:07:32.661Z,100.00
2018-10-19T02:10:00.985Z,100.00
2018-10-19T02:12:29.436Z,100.00
2018-10-19T02:14:57.887Z,100.00
2018-10-19T02:17:26.404Z,100.00
2018-10-19T02:20:01.003Z,100.00
2018-10-19T02:22:30.181Z,100.00
2018-10-19T02:24:58.593Z,100.00
2018-10-19T02:27:26.988Z,100.00
2018-10-19T02:29:55.320Z,100.00
2018-10-19T02:32:23.622Z,100.00
2018-10-19T02:34:51.868Z,100.00
2018-10-19T02:37:20.187Z,100.00
2018-10-19T02:39:48.511Z,100.00
2018-10-19T02:42:16.904Z,100.00
2018-10-19T02:44:45.127Z,100.00
2018-10-19T02:47:13.559Z,100.00
2018-10-19T02:49:41.860Z,100.00
2018-10-19T02:52:10.195Z,100.00
2018-10-19T02:54:38.471Z,100.00
2018-10-19T02:57:07.370Z,100.00
2018-10-19T02:59:35.740Z,100.00
2018-10-19T03:02:04.224Z,100.00
2018-10-19T03:04:32.566Z,100.00
2018-10-19T03:07:01.577Z,100.00
2018-10-19T03:09:30.052Z,100.00
2018-10-19T03:11:58.463Z,100.00
2018-10-19T03:14:26.957Z,100.00
2018-10-19T03:16:55.246Z,100.00
2018-10-19T03:19:24.293Z,100.00
2018-10-19T03:21:52.654Z,100.00
2018-10-19T03:24:21.444Z,100.00
2018-10-19T03:26:49.741Z,100.00
2018-10-19T03:29:18.114Z,100.00
2018-10-19T03:31:46.344Z,100.00
2018-10-19T03:34:14.640Z,100.00
2018-10-19T03:36:42.903Z,100.00
2018-10-19T03:39:11.299Z,100.00
2018-10-19T03:41:39.581Z,100.00
2018-10-19T03:44:07.942Z,100.00
2018-10-19T03:46:36.666Z,100.00
2018-10-19T03:49:05.524Z,100.00
2018-10-19T03:51:33.924Z,100.00
2018-10-19T03:54:02.440Z,100.00
2018-10-19T03:56:30.730Z,100.00
2018-10-19T03:58:59.012Z,100.00
2018-10-19T04:01:27.614Z,100.00
2018-10-19T04:03:56.022Z,100.00
2018-10-19T04:06:24.603Z,100.00
2018-10-19T04:08:52.932Z,100.00
2018-10-19T04:11:21.204Z,100.00
2018-10-19T04:13:49.506Z,100.00
2018-10-19T04:16:18.011Z,100.00
2018-10-19T04:18:46.423Z,100.00
2018-10-19T04:21:14.953Z,100.00
2018-10-19T04:23:43.416Z,100.00
2018-10-19T04:26:11.757Z,100.00
2018-10-19T04:28:40.066Z,100.00
2018-10-19T04:31:08.575Z,100.00
2018-10-19T04:33:37.230Z,100.00
2018-10-19T04:36:05.879Z,100.00
2018-10-19T04:38:34.194Z,100.00
2018-10-19T04:41:02.567Z,100.00
2018-10-19T04:43:31.204Z,100.00
2018-10-19T04:45:59.706Z,100.00
2018-10-19T04:48:28.111Z,100.00
2018-10-19T04:50:56.493Z,100.00
2018-10-19T04:53:24.727Z,100.00
2018-10-19T04:55:53.063Z,100.00
2018-10-19T04:58:21.432Z,100.00
2018-10-19T05:00:49.660Z,100.00
2018-10-19T05:03:18.077Z,100.00
2018-10-19T05:05:46.366Z,100.00
2018-10-19T05:08:14.759Z,100.00
2018-10-19T05:10:43.302Z,100.00
2018-10-19T05:13:11.653Z,100.00
2018-10-19T05:15:39.897Z,100.00
2018-10-19T05:18:08.428Z,100.00
2018-10-19T05:20:36.871Z,100.00
2018-10-19T05:23:05.590Z,100.00
2018-10-19T05:25:33.971Z,100.00
2018-10-19T05:28:02.191Z,100.00
2018-10-19T05:30:30.510Z,100.00
2018-10-19T05:32:58.863Z,100.00
2018-10-19T05:35:27.080Z,100.00
2018-10-19T05:37:55.363Z,100.00
2018-10-19T05:40:23.831Z,100.00
2018-10-19T05:42:52.268Z,100.00
2018-10-19T05:45:20.697Z,100.00
2018-10-19T05:47:49.009Z,100.00
2018-10-19T05:50:17.475Z,100.00
2018-10-19T05:52:46.860Z,100.00
2018-10-19T05:55:15.252Z,100.00
2018-10-19T05:57:43.587Z,100.00
2018-10-19T06:00:12.651Z,100.00
2018-10-19T06:02:41.142Z,100.00
2018-10-19T06:05:09.994Z,100.00
2018-10-19T06:07:38.218Z,100.00
2018-10-19T06:10:07.268Z,100.00
2018-10-19T06:12:35.702Z,100.00
2018-10-19T06:15:04.395Z,100.00
2018-10-19T06:17:32.783Z,100.00
2018-10-19T06:20:01.569Z,100.00
2018-10-19T06:22:29.760Z,100.00
2018-10-19T06:24:58.259Z,100.00
2018-10-19T06:27:26.627Z,100.00
2018-10-19T06:29:55.005Z,100.00
2018-10-19T06:32:23.375Z,100.00
2018-10-19T06:34:51.674Z,100.00
2018-10-19T06:37:19.987Z,100.00
2018-10-19T06:39:48.524Z,100.00
2018-10-19T06:42:18.030Z,100.00
2018-10-19T06:44:46.376Z,100.00
2018-10-19T06:47:14.791Z,100.00
2018-10-19T06:49:43.125Z,100.00
2018-10-19T06:52:11.339Z,100.00
2018-10-19T06:54:39.679Z,100.00
2018-10-19T06:57:07.944Z,100.00
2018-10-19T06:59:36.422Z,100.00
2018-10-19T07:02:04.975Z,100.00
2018-10-19T07:04:33.302Z,100.00
2018-10-19T07:07:01.643Z,100.00
2018-10-19T07:09:30.014Z,100.00
2018-10-19T07:11:58.329Z,100.00
2018-10-19T07:14:26.646Z,100.00
2018-10-19T07:16:54.919Z,100.00
2018-10-19T07:19:23.293Z,100.00
2018-10-19T07:21:51.637Z,100.00
2018-10-19T07:24:20.058Z,100.00
2018-10-19T07:26:48.363Z,100.00
2018-10-19T07:29:16.865Z,100.00
2018-10-19T07:31:45.168Z,100.00
2018-10-19T07:34:13.480Z,100.00
2018-10-19T07:36:42.238Z,100.00
2018-10-19T07:39:10.695Z,100.00
2018-10-19T07:41:39.085Z,100.00
2018-10-19T07:44:07.741Z,100.00
2018-10-19T07:46:36.190Z,100.00
2018-10-19T07:49:04.583Z,100.00
2018-10-19T07:51:32.907Z,100.00
2018-10-19T07:54:01.502Z,100.00
2018-10-19T07:56:29.776Z,100.00
2018-10-19T07:58:58.072Z,100.00
2018-10-19T08:01:26.384Z,100.00
2018-10-19T08:03:54.677Z,100.00
2018-10-19T08:06:23.037Z,99.75
2018-10-19T08:08:51.349Z,98.82
2018-10-19T08:11:19.765Z,97.61
2018-10-19T08:13:48.091Z,96.05
2018-10-19T08:16:17.102Z,94.99
2018-10-19T08:18:45.510Z,95.36
2018-10-19T08:21:14.013Z,95.60
2018-10-19T08:23:42.253Z,93.96
2018-10-19T08:26:10.577Z,92.62
2018-10-19T08:28:38.839Z,91.19
2018-10-19T08:31:07.445Z,90.58
2018-10-19T08:33:35.717Z,93.61
2018-10-19T08:36:04.381Z,92.51
2018-10-19T08:38:32.830Z,91.68
2018-10-19T08:41:01.237Z,91.28
2018-10-19T08:43:31.064Z,90.04
2018-10-19T08:46:03.687Z,88.28
2018-10-19T08:48:32.133Z,86.80
2018-10-19T08:51:00.552Z,86.49
2018-10-19T08:53:29.236Z,84.31
2018-10-19T08:55:57.658Z,83.42
2018-10-19T08:58:26.202Z,82.55
2018-10-19T09:00:54.356Z,81.00
2018-10-19T09:03:22.663Z,79.66
2018-10-19T09:05:51.039Z,78.89
2018-10-19T09:08:19.326Z,77.64
2018-10-19T09:10:47.590Z,78.19
2018-10-19T09:13:15.923Z,77.62
2018-10-19T09:15:45.321Z,77.03
2018-10-19T09:18:13.868Z,76.30
2018-10-19T09:20:42.275Z,75.52
2018-10-19T09:23:12.837Z,75.81
2018-10-19T09:25:41.126Z,74.15
2018-10-19T09:28:09.608Z,72.55
2018-10-19T09:30:37.939Z,73.55
2018-10-19T09:33:06.752Z,72.73
2018-10-19T09:35:38.843Z,72.29
2018-10-19T09:38:07.249Z,71.98
2018-10-19T09:40:35.567Z,72.73
2018-10-19T09:43:04.124Z,71.48
2018-10-19T09:45:32.581Z,71.74
2018-10-19T09:48:00.992Z,71.44
2018-10-19T09:50:29.313Z,70.72
2018-10-19T09:52:57.668Z,70.71
2018-10-19T09:55:25.960Z,69.73
2018-10-19T09:57:54.470Z,69.39
2018-10-19T10:00:28.048Z,68.13
2018-10-19T10:02:56.532Z,67.61
2018-10-19T10:05:24.931Z,66.62
2018-10-19T10:07:53.611Z,70.91
2018-10-19T10:10:24.547Z,66.09
2018-10-19T10:12:53.163Z,65.48
2018-10-19T10:15:21.759Z,64.69
2018-10-19T10:17:50.065Z,63.86
2018-10-19T10:20:19.334Z,63.98
2018-10-19T10:22:47.823Z,63.63
2018-10-19T10:25:16.153Z,62.71
2018-10-19T10:27:44.481Z,63.04
2018-10-19T10:30:12.885Z,62.46
2018-10-19T10:32:41.830Z,63.06
2018-10-19T10:35:10.507Z,63.04
2018-10-19T10:37:38.993Z,62.98
2018-10-19T10:40:07.726Z,63.68
2018-10-19T10:42:36.020Z,63.55
2018-10-19T10:45:04.552Z,62.73
2018-10-19T10:47:32.962Z,63.13
2018-10-19T10:50:01.935Z,62.43
2018-10-19T10:52:30.296Z,62.34
2018-10-19T10:54:58.674Z,62.25
2018-10-19T10:57:26.955Z,62.02
2018-10-19T10:59:55.328Z,60.89
2018-10-19T11:02:23.697Z,61.74
2018-10-19T11:04:52.094Z,60.44
2018-10-19T11:07:20.664Z,60.92
2018-10-19T11:09:48.782Z,61.31
2018-10-19T11:12:17.121Z,61.53
2018-10-19T11:14:45.489Z,59.04
2018-10-19T11:17:13.844Z,59.69
2018-10-19T11:19:43.127Z,58.48
2018-10-19T11:22:11.532Z,58.79
2018-10-19T11:24:39.864Z,56.54
2018-10-19T11:27:08.193Z,56.77
2018-10-19T11:29:36.812Z,56.02
2018-10-19T11:32:06.105Z,56.10
2018-10-19T11:34:34.597Z,57.26
2018-10-19T11:37:03.449Z,55.40
2018-10-19T11:39:31.751Z,55.01
2018-10-19T11:42:00.021Z,54.57
2018-10-19T11:44:28.453Z,53.38
2018-10-19T11:47:00.029Z,53.31
2018-10-19T11:49:28.951Z,53.35
2018-10-19T11:51:57.304Z,53.52
2018-10-19T11:54:25.659Z,51.11
2018-10-19T11:56:53.936Z,50.78
2018-10-19T11:59:22.546Z,48.94
2018-10-19T12:01:50.905Z,49.14
2018-10-19T12:04:19.368Z,49.45
2018-10-19T12:06:47.898Z,49.79
2018-10-19T12:09:16.402Z,48.98
2018-10-19T12:11:44.765Z,47.89
2018-10-19T12:14:13.239Z,46.12
2018-10-19T12:16:41.724Z,44.60
2018-10-19T12:19:10.163Z,44.41
2018-10-19T12:21:40.949Z,43.50
2018-10-19T12:24:09.548Z,44.26
2018-10-19T12:26:38.063Z,41.97
2018-10-19T12:29:06.434Z,40.51
2018-10-19T12:31:35.310Z,39.98
2018-10-19T12:34:04.091Z,38.49
2018-10-19T12:36:34.393Z,38.80
2018-10-19T12:39:02.866Z,37.13
2018-10-19T12:41:31.335Z,38.56
2018-10-19T12:43:59.688Z,39.24
2018-10-19T12:46:40.502Z,38.19
2018-10-19T12:49:09.431Z,38.51
2018-10-19T12:51:38.123Z,39.46
2018-10-19T12:54:06.870Z,39.23
2018-10-19T12:56:35.428Z,43.36
2018-10-19T12:59:03.933Z,42.98
2018-10-19T13:01:33.412Z,42.97
2018-10-19T13:04:02.478Z,40.78
2018-10-19T13:06:30.913Z,38.99
2018-10-19T13:08:59.501Z,38.82
2018-10-19T13:11:28.160Z,38.12
2018-10-19T13:13:56.585Z,37.75
2018-10-19T13:16:25.065Z,38.28
2018-10-19T13:18:53.690Z,38.64
2018-10-19T13:21:22.231Z,39.21
2018-10-19T13:23:50.627Z,41.33
2018-10-19T13:26:19.069Z,41.90
2018-10-19T13:28:47.407Z,42.42
2018-10-19T13:31:15.891Z,42.80
2018-10-19T13:33:44.207Z,42.90
2018-10-19T13:36:12.703Z,42.57
2018-10-19T13:38:41.015Z,41.26
2018-10-19T13:41:09.431Z,40.98
2018-10-19T13:43:38.158Z,41.84
2018-10-19T13:46:06.495Z,39.82
2018-10-19T13:48:35.130Z,38.76
2018-10-19T13:51:03.507Z,38.56
2018-10-19T13:53:31.856Z,37.94
2018-10-19T13:56:00.257Z,38.01
2018-10-19T13:58:28.785Z,37.76
2018-10-19T14:00:57.178Z,38.16
2018-10-19T14:03:25.618Z,38.84
2018-10-19T14:05:54.048Z,40.30
2018-10-19T14:08:22.408Z,42.82
2018-10-19T14:10:50.853Z,42.74
2018-10-19T14:13:19.328Z,42.99
2018-10-19T14:15:47.933Z,42.61
2018-10-19T14:18:16.293Z,43.72
2018-10-19T14:20:44.608Z,43.46
2018-10-19T14:23:12.952Z,44.78
2018-10-19T14:25:41.739Z,43.84
2018-10-19T14:28:10.090Z,44.83
2018-10-19T14:30:38.504Z,44.49
2018-10-19T14:33:06.904Z,44.63
2018-10-19T14:35:35.270Z,43.74
2018-10-19T14:38:04.092Z,43.85
2018-10-19T14:40:32.570Z,42.71
2018-10-19T14:43:01.096Z,42.87
2018-10-19T14:45:29.529Z,42.47
2018-10-19T14:47:57.983Z,41.27
2018-10-19T14:50:26.332Z,42.31
2018-10-19T14:52:54.709Z,41.81
2018-10-19T14:55:23.282Z,42.04
2018-10-19T14:57:51.604Z,43.22
2018-10-19T15:00:20.032Z,43.14
2018-10-19T15:02:48.428Z,43.50
2018-10-19T15:05:18.348Z,43.66
2018-10-19T15:07:46.822Z,43.53
2018-10-19T15:10:17.997Z,42.45
2018-10-19T15:12:46.378Z,43.10
2018-10-19T15:15:22.439Z,43.12
2018-10-19T15:17:50.907Z,44.01
2018-10-19T15:20:19.543Z,44.56
2018-10-19T15:22:48.093Z,46.55
2018-10-19T15:25:16.479Z,46.07
2018-10-19T15:27:45.936Z,47.76
2018-10-19T15:30:16.993Z,48.23
2018-10-19T15:32:45.350Z,49.38
2018-10-19T15:35:13.605Z,53.03
2018-10-19T15:37:42.178Z,53.24
2018-10-19T15:40:11.172Z,52.92
2018-10-19T15:42:39.948Z,52.98
2018-10-19T15:45:10.145Z,53.94
2018-10-19T15:47:38.446Z,56.39
2018-10-19T15:50:07.573Z,54.89
2018-10-19T15:52:35.907Z,55.75
2018-10-19T15:55:04.437Z,56.73
2018-10-19T15:57:32.823Z,57.36
2018-10-19T16:00:01.190Z,58.29
2018-10-19T16:02:29.408Z,58.63
2018-10-19T16:04:57.862Z,59.54
2018-10-19T16:07:26.201Z,60.34
2018-10-19T16:09:54.867Z,61.66
2018-10-19T16:12:23.149Z,61.92
2018-10-19T16:14:51.561Z,62.44
2018-10-19T16:17:19.989Z,63.31
2018-10-19T16:19:49.000Z,63.68
2018-10-19T16:22:17.333Z,64.37
2018-10-19T16:24:45.659Z,65.18
2018-10-19T16:27:14.094Z,65.82
2018-10-19T16:29:42.330Z,66.72
2018-10-19T16:32:10.708Z,68.97
2018-10-19T16:34:39.263Z,68.67
2018-10-19T16:37:07.493Z,69.23
2018-10-19T16:39:35.784Z,69.54
2018-10-19T16:42:04.351Z,70.20
2018-10-19T16:44:32.667Z,70.76
2018-10-19T16:47:01.113Z,71.55
2018-10-19T16:49:29.401Z,71.90
2018-10-19T16:51:57.693Z,72.83
2018-10-19T16:54:26.046Z,74.03
2018-10-19T16:56:54.380Z,74.25
2018-10-19T16:59:22.646Z,74.74
2018-10-19T17:01:53.775Z,75.13
2018-10-19T17:04:22.218Z,75.69
2018-10-19T17:06:50.828Z,75.68
2018-10-19T17:09:19.865Z,76.00
2018-10-19T17:11:48.361Z,76.35
2018-10-19T17:14:17.027Z,76.39
2018-10-19T17:16:52.387Z,76.56
2018-10-19T17:19:20.981Z,75.76
2018-10-19T17:21:51.131Z,76.14
2018-10-19T17:24:20.644Z,75.80
2018-10-19T17:26:50.052Z,75.95
2018-10-19T17:29:21.072Z,76.10
2018-10-19T17:31:50.203Z,77.48
2018-10-19T17:34:20.068Z,77.94
2018-10-19T17:36:49.401Z,78.42
2018-10-19T17:39:18.102Z,78.47
2018-10-19T17:41:52.656Z,80.56
2018-10-19T17:44:21.575Z,80.43
2018-10-19T17:46:51.681Z,80.67
2018-10-19T17:49:20.387Z,81.68
2018-10-19T17:51:49.445Z,82.32
2018-10-19T17:54:19.664Z,83.21
2018-10-19T17:56:52.479Z,83.70
2018-10-19T17:59:20.905Z,83.84
2018-10-19T18:01:49.327Z,84.36
2018-10-19T18:04:17.786Z,84.46
2018-10-19T18:06:47.880Z,83.81
2018-10-19T18:09:16.373Z,83.69
2018-10-19T18:11:45.346Z,83.83
2018-10-19T18:14:13.813Z,83.80
2018-10-19T18:16:42.403Z,84.14
2018-10-19T18:19:20.437Z,85.02
2018-10-19T18:21:49.015Z,86.49
2018-10-19T18:24:17.387Z,86.99
2018-10-19T18:26:46.052Z,87.25
2018-10-19T18:29:14.857Z,88.27
2018-10-19T18:31:43.912Z,87.88
2018-10-19T18:34:12.804Z,88.73
2018-10-19T18:36:41.470Z,88.91
2018-10-19T18:39:13.081Z,88.47
2018-10-19T18:41:42.476Z,89.07
2018-10-19T18:44:12.092Z,90.24
2018-10-19T18:46:40.727Z,91.16
2018-10-19T18:49:09.274Z,91.17
2018-10-19T18:51:39.864Z,90.89
2018-10-19T18:54:10.934Z,92.35
2018-10-19T18:56:40.704Z,90.75
2018-10-19T18:59:11.594Z,90.53
2018-10-19T19:01:46.751Z,91.10
2018-10-19T19:04:15.283Z,91.28
2018-10-19T19:06:44.701Z,91.53
2018-10-19T19:09:18.625Z,91.99
2018-10-19T19:11:48.393Z,92.47
2018-10-19T19:14:17.012Z,93.41
2018-10-19T19:16:45.927Z,94.82
2018-10-19T19:19:16.248Z,95.85
2018-10-19T19:21:48.770Z,95.65
2018-10-19T19:24:23.417Z,95.40
2018-10-19T19:26:52.008Z,96.14
2018-10-19T19:29:22.503Z,96.31
2018-10-19T19:31:51.203Z,97.35
2018-10-19T19:34:22.949Z,97.85
2018-10-19T19:36:51.888Z,99.01
2018-10-19T19:39:20.248Z,99.88
2018-10-19T19:41:53.979Z,100.00
2018-10-19T19:44:22.459Z,100.00
2018-10-19T19:46:51.026Z,100.00
2018-10-19T19:49:24.938Z,100.00
2018-10-19T19:51:53.643Z,100.00
2018-10-19T19:54:22.171Z,100.00
2018-10-19T19:56:50.889Z,100.00
2018-10-19T19:59:20.802Z,100.00
2018-10-19T20:01:50.353Z,100.00
2018-10-19T20:04:19.005Z,100.00
2018-10-19T20:06:48.197Z,100.00
2018-10-19T20:09:17.029Z,100.00
2018-10-19T20:11:46.315Z,100.00
2018-10-19T20:14:16.058Z,100.00
2018-10-19T20:16:44.916Z,100.00
2018-10-19T20:19:13.526Z,100.00
2018-10-19T20:21:42.560Z,100.00
2018-10-19T20:24:36.942Z,100.00
2018-10-19T20:27:07.050Z,100.00
2018-10-19T20:29:36.704Z,100.00
2018-10-19T20:32:07.107Z,100.00
2018-10-19T20:37:13.089Z,100.00
2018-10-19T20:39:41.547Z,100.00
2018-10-19T20:42:10.250Z,100.00
2018-10-19T20:44:39.600Z,100.00
2018-10-19T20:47:08.122Z,100.00
2018-10-19T20:49:36.662Z,100.00
2018-10-19T20:52:05.153Z,100.00
2018-10-19T20:54:33.785Z,100.00
2018-10-19T20:57:02.054Z,100.00
2018-10-19T20:59:34.150Z,100.00
2018-10-19T21:02:03.583Z,100.00
2018-10-19T21:04:32.164Z,100.00
2018-10-19T21:07:00.568Z,100.00
2018-10-19T21:09:29.169Z,100.00
2018-10-19T21:11:57.514Z,100.00
2018-10-19T21:14:25.873Z,100.00
2018-10-19T21:16:54.496Z,100.00
2018-10-19T21:19:23.001Z,100.00
2018-10-19T21:21:51.495Z,100.00
2018-10-19T21:24:19.865Z,100.00
2018-10-19T21:26:48.190Z,100.00
2018-10-19T21:29:16.677Z,100.00
2018-10-19T21:31:45.339Z,100.00
2018-10-19T21:34:13.766Z,100.00
2018-10-19T21:36:42.618Z,100.00
2018-10-19T21:39:13.123Z,100.00
2018-10-19T21:41:43.521Z,100.00
2018-10-19T21:44:11.983Z,100.00
2018-10-19T21:46:40.322Z,100.00
2018-10-19T21:49:08.650Z,100.00
2018-10-19T21:51:36.986Z,100.00
2018-10-19T21:54:05.822Z,100.00
2018-10-19T21:56:34.290Z,100.00
2018-10-19T21:59:03.031Z,100.00
2018-10-19T22:01:31.982Z,100.00
2018-10-19T22:04:00.495Z,100.00
2018-10-19T22:06:28.917Z,100.00
2018-10-19T22:08:57.256Z,100.00
2018-10-19T22:11:25.668Z,100.00
2018-10-19T22:13:54.115Z,100.00
2018-10-19T22:16:22.990Z,100.00
2018-10-19T22:18:51.496Z,100.00
2018-10-19T22:21:20.153Z,100.00
2018-10-19T22:23:49.388Z,100.00
2018-10-19T22:26:17.827Z,100.00
2018-10-19T22:28:46.151Z,100.00
2018-10-19T22:31:14.588Z,100.00
2018-10-19T22:33:42.968Z,100.00
2018-10-19T22:36:11.299Z,100.00
2018-10-19T22:38:39.790Z,100.00
2018-10-19T22:41:08.498Z,100.00
2018-10-19T22:43:36.788Z,100.00
2018-10-19T22:46:05.175Z,100.00
2018-10-19T22:48:33.544Z,100.00
2018-10-19T22:51:02.200Z,100.00
2018-10-19T22:53:30.484Z,100.00
2018-10-19T22:55:58.825Z,100.00
2018-10-19T22:58:27.131Z,100.00
2018-10-19T23:00:55.578Z,100.00
2018-10-19T23:03:23.907Z,100.00
2018-10-19T23:05:52.238Z,100.00
2018-10-19T23:08:20.556Z,100.00
2018-10-19T23:10:49.679Z,100.00
2018-10-19T23:13:18.007Z,100.00
2018-10-19T23:15:46.315Z,100.00
2018-10-19T23:18:14.609Z,100.00
2018-10-19T23:20:42.972Z,100.00
2018-10-19T23:23:11.378Z,100.00
2018-10-19T23:25:39.696Z,100.00
2018-10-19T23:28:08.065Z,100.00
2018-10-19T23:30:36.424Z,100.00
2018-10-19T23:33:05.588Z,100.00
2018-10-19T23:35:34.040Z,100.00
2018-10-19T23:38:02.419Z,100.00
2018-10-19T23:40:30.834Z,100.00
2018-10-19T23:42:59.187Z,100.00
2018-10-19T23:45:27.732Z,100.00
2018-10-19T23:47:56.011Z,100.00
2018-10-19T23:50:24.337Z,100.00
2018-10-19T23:52:52.678Z,100.00
2018-10-19T23:55:20.890Z,100.00
2018-10-19T23:57:49.240Z,100.00
